sensor_id;sensor_type;location;lat;lon;timestamp;temperature;humidity
76878;DHT22;65843;50.692;12.844;2022-12-29T00:00:17;18.70;65.00
76878;DHT22;65843;50.692;12.844;2022-12-29T00:01:18;18.70;65.00
76878;DHT22;65843;50.692;12.844;2022-12-29T00:02:18;18.70;64.60
76878;DHT22;65843;50.692;12.844;2022-12-29T00:03:19;18.70;64.60
76878;DHT22;65843;50.692;12.844;2022-12-29T00:04:20;18.70;64.00
76878;DHT22;65843;50.692;12.844;2022-12-29T00:05:21;18.70;64.80
76878;DHT22;65843;50.692;12.844;2022-12-29T00:06:22;18.70;65.00
76878;DHT22;65843;50.692;12.844;2022-12-29T00:07:23;18.70;65.10
76878;DHT22;65843;50.692;12.844;2022-12-29T00:08:24;18.70;65.00
76878;DHT22;65843;50.692;12.844;2022-12-29T00:09:39;18.70;64.90
76878;DHT22;65843;50.692;12.844;2022-12-29T00:10:40;18.70;65.00
76878;DHT22;65843;50.692;12.844;2022-12-29T00:11:41;18.70;64.20
76878;DHT22;65843;50.692;12.844;2022-12-29T00:12:42;18.70;64.80
76878;DHT22;65843;50.692;12.844;2022-12-29T00:14:01;18.70;64.50
76878;DHT22;65843;50.692;12.844;2022-12-29T00:15:21;18.70;64.90
76878;DHT22;65843;50.692;12.844;2022-12-29T00:16:38;18.70;64.80
76878;DHT22;65843;50.692;12.844;2022-12-29T00:17:40;18.70;64.80
76878;DHT22;65843;50.692;12.844;2022-12-29T00:18:41;18.70;64.70
76878;DHT22;65843;50.692;12.844;2022-12-29T00:19:42;18.70;64.20
76878;DHT22;65843;50.692;12.844;2022-12-29T00:21:01;18.70;64.70
76878;DHT22;65843;50.692;12.844;2022-12-29T00:22:20;18.70;64.70
76878;DHT22;65843;50.692;12.844;2022-12-29T00:23:40;18.70;64.70
76878;DHT22;65843;50.692;12.844;2022-12-29T00:25:00;18.70;64.80
76878;DHT22;65843;50.692;12.844;2022-12-29T00:26:19;18.70;64.70
76878;DHT22;65843;50.692;12.844;2022-12-29T00:27:39;18.70;65.10
76878;DHT22;65843;50.692;12.844;2022-12-29T00:28:59;18.70;65.80
76878;DHT22;65843;50.692;12.844;2022-12-29T00:30:21;18.70;65.50
76878;DHT22;65843;50.692;12.844;2022-12-29T00:31:41;18.70;65.50
76878;DHT22;65843;50.692;12.844;2022-12-29T00:33:07;18.80;65.50
76878;DHT22;65843;50.692;12.844;2022-12-29T00:34:27;18.80;65.30
76878;DHT22;65843;50.692;12.844;2022-12-29T00:36:08;18.70;65.60
76878;DHT22;65843;50.692;12.844;2022-12-29T00:37:07;18.70;65.60
76878;DHT22;65843;50.692;12.844;2022-12-29T00:38:08;18.70;65.60
76878;DHT22;65843;50.692;12.844;2022-12-29T00:39:29;18.80;65.40
76878;DHT22;65843;50.692;12.844;2022-12-29T00:40:49;18.70;65.40
76878;DHT22;65843;50.692;12.844;2022-12-29T00:42:08;18.70;65.60
76878;DHT22;65843;50.692;12.844;2022-12-29T00:43:39;18.70;65.60
76878;DHT22;65843;50.692;12.844;2022-12-29T00:44:58;18.80;65.80
76878;DHT22;65843;50.692;12.844;2022-12-29T00:45:59;18.80;65.70
76878;DHT22;65843;50.692;12.844;2022-12-29T00:47:00;18.80;65.60
76878;DHT22;65843;50.692;12.844;2022-12-29T00:48:03;18.70;65.90
76878;DHT22;65843;50.692;12.844;2022-12-29T00:49:05;18.70;65.90
76878;DHT22;65843;50.692;12.844;2022-12-29T00:50:24;18.70;66.00
76878;DHT22;65843;50.692;12.844;2022-12-29T00:51:25;18.70;66.10
76878;DHT22;65843;50.692;12.844;2022-12-29T00:52:26;18.70;66.10
76878;DHT22;65843;50.692;12.844;2022-12-29T00:53:26;18.70;66.20
76878;DHT22;65843;50.692;12.844;2022-12-29T00:54:28;18.70;66.20
76878;DHT22;65843;50.692;12.844;2022-12-29T00:55:29;18.80;66.20
76878;DHT22;65843;50.692;12.844;2022-12-29T00:56:30;18.80;66.40
76878;DHT22;65843;50.692;12.844;2022-12-29T00:57:31;18.80;66.50
76878;DHT22;65843;50.692;12.844;2022-12-29T00:58:31;18.80;66.40
76878;DHT22;65843;50.692;12.844;2022-12-29T00:59:34;18.80;66.40
76878;DHT22;65843;50.692;12.844;2022-12-29T01:00:35;18.80;66.60
76878;DHT22;65843;50.692;12.844;2022-12-29T01:01:36;18.80;66.20
76878;DHT22;65843;50.692;12.844;2022-12-29T01:02:37;18.80;66.70
76878;DHT22;65843;50.692;12.844;2022-12-29T01:03:38;18.80;66.70
76878;DHT22;65843;50.692;12.844;2022-12-29T01:04:39;18.80;66.80
76878;DHT22;65843;50.692;12.844;2022-12-29T01:05:40;18.80;66.80
76878;DHT22;65843;50.692;12.844;2022-12-29T01:06:41;18.80;66.90
76878;DHT22;65843;50.692;12.844;2022-12-29T01:07:42;18.80;66.70
76878;DHT22;65843;50.692;12.844;2022-12-29T01:08:43;18.80;66.80
76878;DHT22;65843;50.692;12.844;2022-12-29T01:09:43;18.80;67.30
76878;DHT22;65843;50.692;12.844;2022-12-29T01:11:07;18.90;67.20
76878;DHT22;65843;50.692;12.844;2022-12-29T01:12:09;18.90;67.00
76878;DHT22;65843;50.692;12.844;2022-12-29T01:13:10;18.90;67.00
76878;DHT22;65843;50.692;12.844;2022-12-29T01:14:11;18.90;66.90
76878;DHT22;65843;50.692;12.844;2022-12-29T01:15:12;18.90;66.70
76878;DHT22;65843;50.692;12.844;2022-12-29T01:16:14;18.90;66.60
76878;DHT22;65843;50.692;12.844;2022-12-29T01:17:14;19.00;66.60
76878;DHT22;65843;50.692;12.844;2022-12-29T01:18:15;18.90;66.50
76878;DHT22;65843;50.692;12.844;2022-12-29T01:19:16;18.90;66.40
76878;DHT22;65843;50.692;12.844;2022-12-29T01:20:18;18.90;66.50
76878;DHT22;65843;50.692;12.844;2022-12-29T01:21:18;18.90;66.50
76878;DHT22;65843;50.692;12.844;2022-12-29T01:22:19;19.00;66.50
76878;DHT22;65843;50.692;12.844;2022-12-29T01:23:20;18.90;66.40
76878;DHT22;65843;50.692;12.844;2022-12-29T01:24:21;19.00;66.40
76878;DHT22;65843;50.692;12.844;2022-12-29T01:25:22;18.90;66.40
76878;DHT22;65843;50.692;12.844;2022-12-29T01:26:23;19.00;66.40
76878;DHT22;65843;50.692;12.844;2022-12-29T01:27:23;19.00;66.40
76878;DHT22;65843;50.692;12.844;2022-12-29T01:28:24;19.00;66.60
76878;DHT22;65843;50.692;12.844;2022-12-29T01:29:25;18.90;66.60
76878;DHT22;65843;50.692;12.844;2022-12-29T01:30:26;18.90;66.60
76878;DHT22;65843;50.692;12.844;2022-12-29T01:31:27;19.00;66.50
76878;DHT22;65843;50.692;12.844;2022-12-29T01:32:28;18.90;66.50
76878;DHT22;65843;50.692;12.844;2022-12-29T01:33:29;18.90;66.60
76878;DHT22;65843;50.692;12.844;2022-12-29T01:34:30;19.00;66.70
76878;DHT22;65843;50.692;12.844;2022-12-29T01:35:31;19.00;66.50
76878;DHT22;65843;50.692;12.844;2022-12-29T01:36:32;19.00;66.30
76878;DHT22;65843;50.692;12.844;2022-12-29T01:37:33;19.00;66.10
76878;DHT22;65843;50.692;12.844;2022-12-29T01:38:35;19.00;66.10
76878;DHT22;65843;50.692;12.844;2022-12-29T01:39:36;19.00;65.90
76878;DHT22;65843;50.692;12.844;2022-12-29T01:40:42;19.00;66.30
76878;DHT22;65843;50.692;12.844;2022-12-29T01:41:43;19.00;66.40
76878;DHT22;65843;50.692;12.844;2022-12-29T01:42:44;19.00;66.00
76878;DHT22;65843;50.692;12.844;2022-12-29T01:43:46;19.00;66.20
76878;DHT22;65843;50.692;12.844;2022-12-29T01:44:51;19.00;66.40
76878;DHT22;65843;50.692;12.844;2022-12-29T01:45:53;19.00;66.20
76878;DHT22;65843;50.692;12.844;2022-12-29T01:46:54;19.00;66.10
76878;DHT22;65843;50.692;12.844;2022-12-29T01:47:56;19.00;66.20
76878;DHT22;65843;50.692;12.844;2022-12-29T01:50:20;19.00;66.20
76878;DHT22;65843;50.692;12.844;2022-12-29T01:51:23;19.00;66.40
76878;DHT22;65843;50.692;12.844;2022-12-29T01:52:26;19.00;66.50
76878;DHT22;65843;50.692;12.844;2022-12-29T01:53:28;19.00;66.50
76878;DHT22;65843;50.692;12.844;2022-12-29T01:54:32;19.00;66.20
76878;DHT22;65843;50.692;12.844;2022-12-29T01:55:36;19.00;66.20
76878;DHT22;65843;50.692;12.844;2022-12-29T01:56:39;19.00;66.20
76878;DHT22;65843;50.692;12.844;2022-12-29T01:57:40;19.00;66.10
76878;DHT22;65843;50.692;12.844;2022-12-29T01:58:44;19.00;66.10
76878;DHT22;65843;50.692;12.844;2022-12-29T01:59:46;19.00;66.10
76878;DHT22;65843;50.692;12.844;2022-12-29T02:00:49;19.00;66.10
76878;DHT22;65843;50.692;12.844;2022-12-29T02:01:50;19.00;66.00
76878;DHT22;65843;50.692;12.844;2022-12-29T02:02:51;19.00;66.20
76878;DHT22;65843;50.692;12.844;2022-12-29T02:03:52;19.00;66.20
76878;DHT22;65843;50.692;12.844;2022-12-29T02:04:53;19.00;66.10
76878;DHT22;65843;50.692;12.844;2022-12-29T02:06:57;19.00;66.10
76878;DHT22;65843;50.692;12.844;2022-12-29T02:07:58;19.00;66.20
76878;DHT22;65843;50.692;12.844;2022-12-29T02:09:00;18.90;66.20
76878;DHT22;65843;50.692;12.844;2022-12-29T02:10:02;18.90;66.20
76878;DHT22;65843;50.692;12.844;2022-12-29T02:11:03;18.90;66.20
76878;DHT22;65843;50.692;12.844;2022-12-29T02:12:04;18.90;66.00
76878;DHT22;65843;50.692;12.844;2022-12-29T02:13:05;18.90;66.50
76878;DHT22;65843;50.692;12.844;2022-12-29T02:14:09;18.90;66.40
76878;DHT22;65843;50.692;12.844;2022-12-29T02:15:10;18.90;66.50
76878;DHT22;65843;50.692;12.844;2022-12-29T02:16:14;19.00;66.40
76878;DHT22;65843;50.692;12.844;2022-12-29T02:23:28;19.00;66.10
76878;DHT22;65843;50.692;12.844;2022-12-29T02:25:46;19.00;66.40
76878;DHT22;65843;50.692;12.844;2022-12-29T02:31:29;19.00;66.40
76878;DHT22;65843;50.692;12.844;2022-12-29T02:37:58;19.00;66.40
76878;DHT22;65843;50.692;12.844;2022-12-29T02:39:04;19.00;66.20
76878;DHT22;65843;50.692;12.844;2022-12-29T02:40:18;19.00;66.20
76878;DHT22;65843;50.692;12.844;2022-12-29T02:41:26;19.00;66.20
76878;DHT22;65843;50.692;12.844;2022-12-29T02:43:42;19.00;66.20
76878;DHT22;65843;50.692;12.844;2022-12-29T02:51:26;19.00;66.10
76878;DHT22;65843;50.692;12.844;2022-12-29T02:52:34;19.00;66.40
76878;DHT22;65843;50.692;12.844;2022-12-29T02:53:36;19.00;65.80
76878;DHT22;65843;50.692;12.844;2022-12-29T02:54:57;19.00;66.30
76878;DHT22;65843;50.692;12.844;2022-12-29T02:55:59;19.00;66.30
76878;DHT22;65843;50.692;12.844;2022-12-29T02:57:00;19.00;66.20
76878;DHT22;65843;50.692;12.844;2022-12-29T02:58:06;19.00;66.20
76878;DHT22;65843;50.692;12.844;2022-12-29T02:59:11;19.00;65.90
76878;DHT22;65843;50.692;12.844;2022-12-29T03:00:14;19.00;65.70
76878;DHT22;65843;50.692;12.844;2022-12-29T03:02:26;18.90;66.50
76878;DHT22;65843;50.692;12.844;2022-12-29T03:09:54;18.90;66.40
76878;DHT22;65843;50.692;12.844;2022-12-29T03:11:05;18.90;66.60
76878;DHT22;65843;50.692;12.844;2022-12-29T03:13:23;18.90;66.50
76878;DHT22;65843;50.692;12.844;2022-12-29T03:16:20;18.90;66.50
76878;DHT22;65843;50.692;12.844;2022-12-29T03:18:46;18.90;66.40
76878;DHT22;65843;50.692;12.844;2022-12-29T03:19:48;18.90;66.50
76878;DHT22;65843;50.692;12.844;2022-12-29T03:20:52;18.90;66.40
76878;DHT22;65843;50.692;12.844;2022-12-29T03:21:55;18.90;66.40
76878;DHT22;65843;50.692;12.844;2022-12-29T03:23:16;18.90;66.50
76878;DHT22;65843;50.692;12.844;2022-12-29T03:24:18;18.90;66.60
76878;DHT22;65843;50.692;12.844;2022-12-29T03:26:21;18.90;66.50
76878;DHT22;65843;50.692;12.844;2022-12-29T03:27:25;18.90;66.70
76878;DHT22;65843;50.692;12.844;2022-12-29T03:28:29;18.80;66.60
76878;DHT22;65843;50.692;12.844;2022-12-29T03:29:32;18.80;66.50
76878;DHT22;65843;50.692;12.844;2022-12-29T03:30:34;18.80;66.60
76878;DHT22;65843;50.692;12.844;2022-12-29T03:31:36;18.80;66.90
76878;DHT22;65843;50.692;12.844;2022-12-29T03:32:49;18.80;67.10
76878;DHT22;65843;50.692;12.844;2022-12-29T03:33:50;18.80;66.90
76878;DHT22;65843;50.692;12.844;2022-12-29T03:34:52;18.80;67.40
76878;DHT22;65843;50.692;12.844;2022-12-29T03:35:55;18.80;67.60
76878;DHT22;65843;50.692;12.844;2022-12-29T03:37:00;18.80;67.40
76878;DHT22;65843;50.692;12.844;2022-12-29T03:39:13;18.90;67.60
76878;DHT22;65843;50.692;12.844;2022-12-29T03:40:14;18.90;67.60
76878;DHT22;65843;50.692;12.844;2022-12-29T03:41:16;18.90;67.60
76878;DHT22;65843;50.692;12.844;2022-12-29T03:42:19;18.90;67.50
76878;DHT22;65843;50.692;12.844;2022-12-29T03:43:20;18.90;67.50
76878;DHT22;65843;50.692;12.844;2022-12-29T03:44:21;18.90;67.60
76878;DHT22;65843;50.692;12.844;2022-12-29T03:45:31;18.90;67.30
76878;DHT22;65843;50.692;12.844;2022-12-29T03:46:32;18.90;67.20
76878;DHT22;65843;50.692;12.844;2022-12-29T03:47:33;18.90;67.00
76878;DHT22;65843;50.692;12.844;2022-12-29T03:48:34;18.90;67.30
76878;DHT22;65843;50.692;12.844;2022-12-29T03:49:35;18.90;67.10
76878;DHT22;65843;50.692;12.844;2022-12-29T03:50:35;18.90;66.80
76878;DHT22;65843;50.692;12.844;2022-12-29T03:51:36;18.90;67.10
76878;DHT22;65843;50.692;12.844;2022-12-29T03:52:37;18.90;66.80
76878;DHT22;65843;50.692;12.844;2022-12-29T03:53:38;18.90;67.40
76878;DHT22;65843;50.692;12.844;2022-12-29T03:54:39;18.90;67.10
76878;DHT22;65843;50.692;12.844;2022-12-29T03:55:40;18.90;66.70
76878;DHT22;65843;50.692;12.844;2022-12-29T03:56:41;18.90;67.10
76878;DHT22;65843;50.692;12.844;2022-12-29T03:57:41;18.90;67.20
76878;DHT22;65843;50.692;12.844;2022-12-29T03:58:42;18.90;67.10
76878;DHT22;65843;50.692;12.844;2022-12-29T03:59:43;18.90;67.30
76878;DHT22;65843;50.692;12.844;2022-12-29T04:00:44;18.90;67.30
76878;DHT22;65843;50.692;12.844;2022-12-29T04:01:45;18.90;66.90
76878;DHT22;65843;50.692;12.844;2022-12-29T04:02:47;18.90;67.30
76878;DHT22;65843;50.692;12.844;2022-12-29T04:03:47;18.90;67.30
76878;DHT22;65843;50.692;12.844;2022-12-29T04:04:48;18.90;67.30
76878;DHT22;65843;50.692;12.844;2022-12-29T04:05:49;18.80;67.40
76878;DHT22;65843;50.692;12.844;2022-12-29T04:06:50;18.90;67.40
76878;DHT22;65843;50.692;12.844;2022-12-29T04:07:51;18.90;67.40
76878;DHT22;65843;50.692;12.844;2022-12-29T04:08:52;18.90;67.20
76878;DHT22;65843;50.692;12.844;2022-12-29T04:09:53;18.90;67.10
76878;DHT22;65843;50.692;12.844;2022-12-29T04:10:53;18.90;67.20
76878;DHT22;65843;50.692;12.844;2022-12-29T04:11:54;18.90;67.40
76878;DHT22;65843;50.692;12.844;2022-12-29T04:12:55;18.90;67.10
76878;DHT22;65843;50.692;12.844;2022-12-29T04:13:56;18.90;66.80
76878;DHT22;65843;50.692;12.844;2022-12-29T04:14:57;18.90;67.20
76878;DHT22;65843;50.692;12.844;2022-12-29T04:15:57;18.90;67.40
76878;DHT22;65843;50.692;12.844;2022-12-29T04:16:58;18.90;67.10
76878;DHT22;65843;50.692;12.844;2022-12-29T04:17:59;18.90;67.50
76878;DHT22;65843;50.692;12.844;2022-12-29T04:19:00;18.90;67.20
76878;DHT22;65843;50.692;12.844;2022-12-29T04:20:01;18.90;67.20
76878;DHT22;65843;50.692;12.844;2022-12-29T04:21:20;18.90;67.50
76878;DHT22;65843;50.692;12.844;2022-12-29T04:22:21;19.00;67.30
76878;DHT22;65843;50.692;12.844;2022-12-29T04:23:22;19.00;67.50
76878;DHT22;65843;50.692;12.844;2022-12-29T04:24:23;18.90;67.50
76878;DHT22;65843;50.692;12.844;2022-12-29T04:25:24;19.00;66.80
76878;DHT22;65843;50.692;12.844;2022-12-29T04:26:25;19.00;67.20
76878;DHT22;65843;50.692;12.844;2022-12-29T04:27:26;18.90;67.10
76878;DHT22;65843;50.692;12.844;2022-12-29T04:28:26;19.00;66.90
76878;DHT22;65843;50.692;12.844;2022-12-29T04:29:27;19.00;67.00
76878;DHT22;65843;50.692;12.844;2022-12-29T04:30:28;19.00;67.10
76878;DHT22;65843;50.692;12.844;2022-12-29T04:31:29;19.00;66.90
76878;DHT22;65843;50.692;12.844;2022-12-29T04:32:30;19.00;66.30
76878;DHT22;65843;50.692;12.844;2022-12-29T04:33:31;19.00;66.90
76878;DHT22;65843;50.692;12.844;2022-12-29T04:34:32;18.90;67.00
76878;DHT22;65843;50.692;12.844;2022-12-29T04:35:32;18.90;67.30
76878;DHT22;65843;50.692;12.844;2022-12-29T04:36:33;18.90;67.40
76878;DHT22;65843;50.692;12.844;2022-12-29T04:37:34;19.00;67.60
76878;DHT22;65843;50.692;12.844;2022-12-29T04:38:35;19.00;67.60
76878;DHT22;65843;50.692;12.844;2022-12-29T04:39:36;19.00;67.30
76878;DHT22;65843;50.692;12.844;2022-12-29T04:40:40;19.00;67.20
76878;DHT22;65843;50.692;12.844;2022-12-29T04:41:41;19.00;67.50
76878;DHT22;65843;50.692;12.844;2022-12-29T04:42:42;19.00;67.40
76878;DHT22;65843;50.692;12.844;2022-12-29T04:43:43;19.00;66.90
76878;DHT22;65843;50.692;12.844;2022-12-29T04:44:43;19.00;67.20
76878;DHT22;65843;50.692;12.844;2022-12-29T04:45:47;19.00;67.50
76878;DHT22;65843;50.692;12.844;2022-12-29T04:46:48;19.00;67.50
76878;DHT22;65843;50.692;12.844;2022-12-29T04:47:49;19.00;67.50
76878;DHT22;65843;50.692;12.844;2022-12-29T04:48:50;19.00;67.60
76878;DHT22;65843;50.692;12.844;2022-12-29T04:49:51;19.00;67.40
76878;DHT22;65843;50.692;12.844;2022-12-29T04:50:52;19.00;67.50
76878;DHT22;65843;50.692;12.844;2022-12-29T04:51:53;19.00;66.90
76878;DHT22;65843;50.692;12.844;2022-12-29T04:52:54;19.00;67.30
76878;DHT22;65843;50.692;12.844;2022-12-29T04:53:55;19.00;67.40
76878;DHT22;65843;50.692;12.844;2022-12-29T04:54:55;19.00;67.60
76878;DHT22;65843;50.692;12.844;2022-12-29T04:55:56;19.00;68.30
76878;DHT22;65843;50.692;12.844;2022-12-29T04:56:57;19.00;67.80
76878;DHT22;65843;50.692;12.844;2022-12-29T04:57:58;19.00;67.60
76878;DHT22;65843;50.692;12.844;2022-12-29T04:58:59;19.00;67.40
76878;DHT22;65843;50.692;12.844;2022-12-29T05:00:00;19.00;67.50
76878;DHT22;65843;50.692;12.844;2022-12-29T05:01:01;19.00;67.10
76878;DHT22;65843;50.692;12.844;2022-12-29T05:02:01;19.00;67.20
76878;DHT22;65843;50.692;12.844;2022-12-29T05:03:02;19.00;66.80
76878;DHT22;65843;50.692;12.844;2022-12-29T05:04:03;19.00;67.00
76878;DHT22;65843;50.692;12.844;2022-12-29T05:05:04;18.90;66.90
76878;DHT22;65843;50.692;12.844;2022-12-29T05:06:05;18.90;66.70
76878;DHT22;65843;50.692;12.844;2022-12-29T05:07:06;18.90;66.60
76878;DHT22;65843;50.692;12.844;2022-12-29T05:08:07;18.90;66.60
76878;DHT22;65843;50.692;12.844;2022-12-29T05:09:08;18.90;66.70
76878;DHT22;65843;50.692;12.844;2022-12-29T05:10:09;18.90;66.80
76878;DHT22;65843;50.692;12.844;2022-12-29T05:11:10;18.90;66.60
76878;DHT22;65843;50.692;12.844;2022-12-29T05:12:11;18.90;66.60
76878;DHT22;65843;50.692;12.844;2022-12-29T05:13:12;18.90;66.80
76878;DHT22;65843;50.692;12.844;2022-12-29T05:14:13;18.80;66.80
76878;DHT22;65843;50.692;12.844;2022-12-29T05:15:13;18.80;66.80
76878;DHT22;65843;50.692;12.844;2022-12-29T05:16:14;18.80;66.50
76878;DHT22;65843;50.692;12.844;2022-12-29T05:17:15;18.80;66.70
76878;DHT22;65843;50.692;12.844;2022-12-29T05:18:16;18.80;66.70
76878;DHT22;65843;50.692;12.844;2022-12-29T05:19:17;18.80;66.80
76878;DHT22;65843;50.692;12.844;2022-12-29T05:20:18;18.80;67.10
76878;DHT22;65843;50.692;12.844;2022-12-29T05:21:19;18.80;67.00
76878;DHT22;65843;50.692;12.844;2022-12-29T05:22:20;18.80;66.80
76878;DHT22;65843;50.692;12.844;2022-12-29T05:23:21;18.80;66.70
76878;DHT22;65843;50.692;12.844;2022-12-29T05:24:21;18.80;66.80
76878;DHT22;65843;50.692;12.844;2022-12-29T05:25:22;18.80;66.90
76878;DHT22;65843;50.692;12.844;2022-12-29T05:26:23;18.80;66.90
76878;DHT22;65843;50.692;12.844;2022-12-29T05:27:24;18.80;66.90
76878;DHT22;65843;50.692;12.844;2022-12-29T05:28:25;18.80;66.80
76878;DHT22;65843;50.692;12.844;2022-12-29T05:29:26;18.80;67.10
76878;DHT22;65843;50.692;12.844;2022-12-29T05:30:27;18.80;67.00
76878;DHT22;65843;50.692;12.844;2022-12-29T05:31:28;18.80;67.00
76878;DHT22;65843;50.692;12.844;2022-12-29T05:32:28;18.80;66.60
76878;DHT22;65843;50.692;12.844;2022-12-29T05:33:29;18.70;67.00
76878;DHT22;65843;50.692;12.844;2022-12-29T05:34:30;18.80;67.00
76878;DHT22;65843;50.692;12.844;2022-12-29T05:35:31;18.80;66.80
76878;DHT22;65843;50.692;12.844;2022-12-29T05:36:32;18.80;66.80
76878;DHT22;65843;50.692;12.844;2022-12-29T05:37:33;18.80;66.60
76878;DHT22;65843;50.692;12.844;2022-12-29T05:38:34;18.80;66.80
76878;DHT22;65843;50.692;12.844;2022-12-29T05:39:35;18.80;66.80
76878;DHT22;65843;50.692;12.844;2022-12-29T05:40:36;18.80;66.90
76878;DHT22;65843;50.692;12.844;2022-12-29T05:41:37;18.80;66.80
76878;DHT22;65843;50.692;12.844;2022-12-29T05:42:38;18.80;66.50
76878;DHT22;65843;50.692;12.844;2022-12-29T05:43:39;18.80;66.50
76878;DHT22;65843;50.692;12.844;2022-12-29T05:44:40;18.80;66.90
76878;DHT22;65843;50.692;12.844;2022-12-29T05:45:41;18.80;67.00
76878;DHT22;65843;50.692;12.844;2022-12-29T05:46:41;18.80;66.70
76878;DHT22;65843;50.692;12.844;2022-12-29T05:47:42;18.80;66.90
76878;DHT22;65843;50.692;12.844;2022-12-29T05:48:43;18.80;66.70
76878;DHT22;65843;50.692;12.844;2022-12-29T05:49:44;18.80;66.70
76878;DHT22;65843;50.692;12.844;2022-12-29T05:50:48;18.70;66.60
76878;DHT22;65843;50.692;12.844;2022-12-29T05:51:49;18.70;66.70
76878;DHT22;65843;50.692;12.844;2022-12-29T05:52:50;18.70;66.70
76878;DHT22;65843;50.692;12.844;2022-12-29T05:53:51;18.70;66.80
76878;DHT22;65843;50.692;12.844;2022-12-29T05:54:52;18.70;67.10
76878;DHT22;65843;50.692;12.844;2022-12-29T05:55:53;18.70;66.80
76878;DHT22;65843;50.692;12.844;2022-12-29T05:56:54;18.70;66.60
76878;DHT22;65843;50.692;12.844;2022-12-29T05:57:55;18.70;66.80
76878;DHT22;65843;50.692;12.844;2022-12-29T05:58:56;18.70;66.80
76878;DHT22;65843;50.692;12.844;2022-12-29T05:59:57;18.70;66.80
76878;DHT22;65843;50.692;12.844;2022-12-29T06:00:58;18.70;66.80
76878;DHT22;65843;50.692;12.844;2022-12-29T06:01:59;18.70;67.00
76878;DHT22;65843;50.692;12.844;2022-12-29T06:03:00;18.70;66.80
76878;DHT22;65843;50.692;12.844;2022-12-29T06:04:00;18.70;66.80
76878;DHT22;65843;50.692;12.844;2022-12-29T06:05:01;18.70;66.80
76878;DHT22;65843;50.692;12.844;2022-12-29T06:06:02;18.70;66.80
76878;DHT22;65843;50.692;12.844;2022-12-29T06:07:03;18.70;66.90
76878;DHT22;65843;50.692;12.844;2022-12-29T06:08:04;18.70;66.60
76878;DHT22;65843;50.692;12.844;2022-12-29T06:09:05;18.70;66.20
76878;DHT22;65843;50.692;12.844;2022-12-29T06:10:06;18.70;65.10
76878;DHT22;65843;50.692;12.844;2022-12-29T06:11:07;18.70;65.30
76878;DHT22;65843;50.692;12.844;2022-12-29T06:12:08;18.70;66.00
76878;DHT22;65843;50.692;12.844;2022-12-29T06:13:08;18.70;65.90
76878;DHT22;65843;50.692;12.844;2022-12-29T06:14:09;18.70;65.40
76878;DHT22;65843;50.692;12.844;2022-12-29T06:15:10;18.70;64.80
76878;DHT22;65843;50.692;12.844;2022-12-29T06:16:11;18.70;64.00
76878;DHT22;65843;50.692;12.844;2022-12-29T06:17:12;18.70;63.60
76878;DHT22;65843;50.692;12.844;2022-12-29T06:18:13;18.70;63.60
76878;DHT22;65843;50.692;12.844;2022-12-29T06:19:14;18.70;63.30
76878;DHT22;65843;50.692;12.844;2022-12-29T06:20:15;18.60;63.20
76878;DHT22;65843;50.692;12.844;2022-12-29T06:21:16;18.60;62.80
76878;DHT22;65843;50.692;12.844;2022-12-29T06:22:17;18.60;63.10
76878;DHT22;65843;50.692;12.844;2022-12-29T06:23:18;18.60;62.60
76878;DHT22;65843;50.692;12.844;2022-12-29T06:24:19;18.60;62.40
76878;DHT22;65843;50.692;12.844;2022-12-29T06:25:20;18.60;62.50
76878;DHT22;65843;50.692;12.844;2022-12-29T06:26:21;18.60;62.50
76878;DHT22;65843;50.692;12.844;2022-12-29T06:27:22;18.50;62.80
76878;DHT22;65843;50.692;12.844;2022-12-29T06:28:22;18.50;62.80
76878;DHT22;65843;50.692;12.844;2022-12-29T06:29:23;18.50;62.70
76878;DHT22;65843;50.692;12.844;2022-12-29T06:30:24;18.50;63.00
76878;DHT22;65843;50.692;12.844;2022-12-29T06:31:25;18.50;62.50
76878;DHT22;65843;50.692;12.844;2022-12-29T06:32:26;18.50;62.50
76878;DHT22;65843;50.692;12.844;2022-12-29T06:33:27;18.50;62.10
76878;DHT22;65843;50.692;12.844;2022-12-29T06:34:28;18.50;62.50
76878;DHT22;65843;50.692;12.844;2022-12-29T06:35:29;18.50;62.30
76878;DHT22;65843;50.692;12.844;2022-12-29T06:36:30;18.50;63.30
76878;DHT22;65843;50.692;12.844;2022-12-29T06:37:30;18.40;63.00
76878;DHT22;65843;50.692;12.844;2022-12-29T06:38:31;18.50;63.30
76878;DHT22;65843;50.692;12.844;2022-12-29T06:39:32;18.50;63.00
76878;DHT22;65843;50.692;12.844;2022-12-29T06:40:33;18.50;63.00
76878;DHT22;65843;50.692;12.844;2022-12-29T06:41:34;18.40;63.00
76878;DHT22;65843;50.692;12.844;2022-12-29T06:42:35;18.50;63.30
76878;DHT22;65843;50.692;12.844;2022-12-29T06:43:36;18.50;63.00
76878;DHT22;65843;50.692;12.844;2022-12-29T06:44:38;18.50;62.90
76878;DHT22;65843;50.692;12.844;2022-12-29T06:45:39;18.50;62.60
76878;DHT22;65843;50.692;12.844;2022-12-29T06:46:40;18.50;62.60
76878;DHT22;65843;50.692;12.844;2022-12-29T06:47:41;18.50;62.20
76878;DHT22;65843;50.692;12.844;2022-12-29T06:48:42;18.50;62.20
76878;DHT22;65843;50.692;12.844;2022-12-29T06:49:43;18.50;62.00
76878;DHT22;65843;50.692;12.844;2022-12-29T06:50:44;18.50;61.80
76878;DHT22;65843;50.692;12.844;2022-12-29T06:51:44;18.50;61.80
76878;DHT22;65843;50.692;12.844;2022-12-29T06:52:46;18.40;61.50
76878;DHT22;65843;50.692;12.844;2022-12-29T06:53:46;18.40;61.50
76878;DHT22;65843;50.692;12.844;2022-12-29T06:54:47;18.40;61.40
76878;DHT22;65843;50.692;12.844;2022-12-29T06:55:48;18.40;61.60
76878;DHT22;65843;50.692;12.844;2022-12-29T06:56:49;18.40;62.00
76878;DHT22;65843;50.692;12.844;2022-12-29T06:57:50;18.40;61.70
76878;DHT22;65843;50.692;12.844;2022-12-29T06:58:51;18.40;61.70
76878;DHT22;65843;50.692;12.844;2022-12-29T06:59:52;18.40;61.30
76878;DHT22;65843;50.692;12.844;2022-12-29T07:00:52;18.40;61.20
76878;DHT22;65843;50.692;12.844;2022-12-29T07:01:53;18.50;61.10
76878;DHT22;65843;50.692;12.844;2022-12-29T07:02:55;18.50;61.20
76878;DHT22;65843;50.692;12.844;2022-12-29T07:03:56;18.50;61.50
76878;DHT22;65843;50.692;12.844;2022-12-29T07:04:58;18.50;61.40
76878;DHT22;65843;50.692;12.844;2022-12-29T07:05:58;18.50;61.20
76878;DHT22;65843;50.692;12.844;2022-12-29T07:06:59;18.50;61.10
76878;DHT22;65843;50.692;12.844;2022-12-29T07:08:00;18.40;61.10
76878;DHT22;65843;50.692;12.844;2022-12-29T07:09:01;18.40;60.80
76878;DHT22;65843;50.692;12.844;2022-12-29T07:10:02;18.40;61.00
76878;DHT22;65843;50.692;12.844;2022-12-29T07:11:03;18.40;61.30
76878;DHT22;65843;50.692;12.844;2022-12-29T07:12:04;18.40;61.30